Time;durP1;ratioP1;P1;durP2;ratioP2;P2;SDS_P1;SDS_P2;PMS_P1;PMS_P2;Temp;Humidity;BMP_temperature;BMP_pressure;BME280_temperature;BME280_humidity;BME280_pressure;Samples;Min_cycle;Max_cycle;Signal;HPM_P1;HPM_P2
2022/01/20 00:01:50;;;;;;;;;;;;;;;18.15;45.44;101045.72;2082751;28;19928;-40
2022/01/20 00:02:59;;;;;;;;;;;;;;;18.16;45.11;101047.47;2082055;28;19925;-40
2022/01/20 00:04:00;;;;;;;;;;;;;;;18.17;45.28;101043.75;2071068;28;19978;-40
2022/01/20 00:05:13;;;;;;;;;;;;;;;18.17;45.19;101046.47;2083548;28;19989;-45
2022/01/20 00:07:35;;;;;;;;;;;;;;;18.19;45.15;101044.50;2078123;28;20028;-41
2022/01/20 00:25:56;;;;;;;;;;;;;;;18.41;44.63;101060.91;2083082;28;19917;-40
2022/01/20 00:27:03;;;;;;;;;;;;;;;18.45;44.75;101057.91;2079635;28;19921;-41
2022/01/20 00:28:12;;;;;;;;;;;;;;;18.46;44.75;101060.53;2083930;28;19942;-47
2022/01/20 00:29:21;;;;;;;;;;;;;;;18.48;44.69;101057.69;2081523;28;19920;-41
2022/01/20 00:30:41;;;;;;;;;;;;;;;18.48;44.63;101050.38;2077362;28;19967;-41
2022/01/20 00:31:59;;;;;;;;;;;;;;;18.50;44.67;101062.03;2083101;28;20258;-40
2022/01/20 00:34:30;;;;;;;;;;;;;;;18.53;44.36;101060.91;2084782;28;19927;-40
2022/01/20 00:37:14;;;;;;;;;;;;;;;18.52;44.51;101060.06;2084718;28;19927;-40
2022/01/20 00:38:10;;;;;;;;;;;;;;;18.53;44.49;101053.59;2080174;28;19921;-40
2022/01/20 00:39:10;;;;;;;;;;;;;;;18.55;44.43;101058.94;2084573;28;19920;-40
2022/01/20 00:40:11;;;;;;;;;;;;;;;18.55;44.36;101054.34;2083350;28;20331;-40
2022/01/20 00:41:15;;;;;;;;;;;;;;;18.56;44.35;101052.47;2083486;28;19919;-41
2022/01/20 00:42:16;;;;;;;;;;;;;;;18.57;44.56;101056.94;2083605;28;19942;-41
2022/01/20 00:43:16;;;;;;;;;;;;;;;18.58;44.31;101053.22;2080247;28;19993;-42
2022/01/20 00:44:17;;;;;;;;;;;;;;;18.58;44.41;101053.22;2081277;28;19912;-41
2022/01/20 00:45:17;;;;;;;;;;;;;;;18.57;44.31;101046.00;2083035;28;19913;-41
2022/01/20 00:46:17;;;;;;;;;;;;;;;18.58;44.34;101054.09;2083189;28;19908;-41
2022/01/20 00:47:18;;;;;;;;;;;;;;;18.59;44.44;101055.84;2081941;28;20255;-40
2022/01/20 00:48:19;;;;;;;;;;;;;;;18.59;44.31;101054.94;2082344;28;19985;-40
2022/01/20 00:49:20;;;;;;;;;;;;;;;18.59;44.31;101054.94;2080608;28;19913;-43
2022/01/20 00:50:21;;;;;;;;;;;;;;;18.61;44.32;101052.97;2079559;28;19932;-41
2022/01/20 00:51:23;;;;;;;;;;;;;;;18.64;44.38;101053.63;2082634;28;19916;-40
2022/01/20 00:52:23;;;;;;;;;;;;;;;18.64;44.41;101052.72;2083478;28;19925;-41
2022/01/20 00:53:24;;;;;;;;;;;;;;;18.65;44.29;101054.47;2083052;28;19928;-40
2022/01/20 00:54:24;;;;;;;;;;;;;;;18.66;44.36;101060.78;2079935;28;20293;-40
2022/01/20 00:55:25;;;;;;;;;;;;;;;18.67;44.33;101057.97;2078786;28;19994;-41
2022/01/20 00:56:25;;;;;;;;;;;;;;;18.68;44.16;101058.81;2082828;28;20394;-40
2022/01/20 00:57:25;;;;;;;;;;;;;;;18.68;44.18;101053.34;2081887;28;19928;-40
2022/01/20 00:58:25;;;;;;;;;;;;;;;18.69;44.34;101055.97;2081136;28;19924;-40
2022/01/20 00:59:27;;;;;;;;;;;;;;;18.68;44.21;101054.22;2083133;28;19970;-40
2022/01/20 01:00:27;;;;;;;;;;;;;;;18.70;44.24;101048.66;2080559;28;19920;-41
2022/01/20 01:01:28;;;;;;;;;;;;;;;18.69;44.17;101050.50;2082039;28;19997;-42
2022/01/20 01:02:28;;;;;;;;;;;;;;;18.70;44.18;101052.25;2081999;28;20023;-41
2022/01/20 01:03:28;;;;;;;;;;;;;;;18.71;44.10;101053.97;2083308;28;19952;-40
2022/01/20 01:04:29;;;;;;;;;;;;;;;18.72;44.25;101055.72;2081830;28;20011;-41
2022/01/20 01:05:29;;;;;;;;;;;;;;;18.72;44.25;101054.84;2083038;28;19961;-41
2022/01/20 01:08:45;;;;;;;;;;;;;;;18.71;44.21;101062.16;2083057;28;19920;-42
2022/01/20 01:09:46;;;;;;;;;;;;;;;18.73;44.14;101068.38;2083474;28;20243;-40
2022/01/20 01:10:49;;;;;;;;;;;;;;;18.74;44.17;101059.19;2084920;28;19912;-40
2022/01/20 01:11:52;;;;;;;;;;;;;;;18.75;44.19;101066.38;2081557;28;19912;-40
2022/01/20 01:13:55;;;;;;;;;;;;;;;18.76;44.11;101062.69;2086576;28;19917;-41
2022/01/20 01:14:56;;;;;;;;;;;;;;;18.77;44.11;101058.13;2081511;28;19916;-40
2022/01/20 01:15:56;;;;;;;;;;;;;;;18.78;44.09;101055.25;2084224;28;19923;-40
2022/01/20 01:23:26;;;;;;;;;;;;;;;18.83;44.04;101063.06;2074944;28;19920;-40
2022/01/20 01:24:26;;;;;;;;;;;;;;;18.83;43.99;101066.66;2083138;28;20211;-41
2022/01/20 01:25:26;;;;;;;;;;;;;;;18.83;43.87;101066.66;2083094;28;19920;-41
2022/01/20 01:26:28;;;;;;;;;;;;;;;18.83;43.98;101058.47;2084008;28;19917;-42
2022/01/20 01:27:33;;;;;;;;;;;;;;;18.87;44.02;101069.16;2079606;28;20270;-41
2022/01/20 01:28:34;;;;;;;;;;;;;;;18.84;43.84;101065.69;2082657;28;19927;-41
2022/01/20 01:31:57;;;;;;;;;;;;;;;18.83;43.95;101069.38;2081649;28;20210;-40
2022/01/20 01:32:57;;;;;;;;;;;;;;;18.82;43.95;101073.13;2083697;28;19924;-40
2022/01/20 01:34:03;;;;;;;;;;;;;;;18.82;43.96;101067.66;2081891;28;19920;-40
2022/01/20 01:35:07;;;;;;;;;;;;;;;18.81;43.95;101082.31;2083578;28;19917;-41
2022/01/20 01:36:12;;;;;;;;;;;;;;;18.80;43.97;101080.56;2080653;28;19951;-41
2022/01/20 01:38:37;;;;;;;;;;;;;;;18.81;43.88;101082.31;2083937;28;19982;-42
2022/01/20 01:39:37;;;;;;;;;;;;;;;18.80;44.05;101080.56;2083983;28;19927;-41
2022/01/20 01:40:40;;;;;;;;;;;;;;;18.79;44.14;101089.78;2081942;28;19920;-40
2022/01/20 01:41:41;;;;;;;;;;;;;;;18.80;43.95;101096.97;2082741;28;20102;-41
2022/01/20 01:42:47;;;;;;;;;;;;;;;18.80;43.98;101093.38;2083104;28;19940;-41
2022/01/20 01:43:50;;;;;;;;;;;;;;;18.79;43.95;101095.22;2082847;28;19927;-41
2022/01/20 01:44:52;;;;;;;;;;;;;;;18.78;43.99;101088.00;2085367;28;20368;-41
2022/01/20 01:45:52;;;;;;;;;;;;;;;18.77;44.16;101091.75;2083123;28;19924;-41
2022/01/20 01:46:53;;;;;;;;;;;;;;;18.77;43.97;101086.28;2079783;28;19916;-41
2022/01/20 01:47:54;;;;;;;;;;;;;;;18.78;44.09;101098.94;2083160;28;19928;-41
2022/01/20 01:48:56;;;;;;;;;;;;;;;18.79;43.99;101094.34;2081953;28;19917;-41
2022/01/20 01:49:57;;;;;;;;;;;;;;;18.79;44.02;101088.88;2084179;28;20242;-40
2022/01/20 01:50:59;;;;;;;;;;;;;;;18.80;44.15;101085.16;2080034;28;19917;-40
2022/01/20 01:52:00;;;;;;;;;;;;;;;18.79;44.08;101084.31;2077884;28;20339;-40
2022/01/20 01:53:04;;;;;;;;;;;;;;;18.80;44.13;101086.03;2083043;28;20100;-40
2022/01/20 01:54:05;;;;;;;;;;;;;;;18.82;43.87;101084.06;2083047;28;19920;-41
2022/01/20 01:55:05;;;;;;;;;;;;;;;18.82;44.01;101089.53;2084490;28;20235;-41
2022/01/20 01:56:06;;;;;;;;;;;;;;;18.80;43.95;101090.63;2082376;28;19920;-41
2022/01/20 01:57:09;;;;;;;;;;;;;;;18.80;44.14;101086.03;2083351;28;20263;-41
2022/01/20 01:58:09;;;;;;;;;;;;;;;18.80;44.14;101087.91;2081945;28;19920;-41
2022/01/20 01:59:09;;;;;;;;;;;;;;;18.79;44.08;101083.41;2078287;28;19916;-40
2022/01/20 02:00:10;;;;;;;;;;;;;;;18.78;44.04;101084.41;2081387;28;19921;-40
2022/01/20 02:01:11;;;;;;;;;;;;;;;18.77;44.04;101083.56;2081593;28;19942;-40
2022/01/20 02:02:12;;;;;;;;;;;;;;;18.76;44.19;101079.06;2083076;28;19973;-41
2022/01/20 02:03:14;;;;;;;;;;;;;;;18.76;44.12;101084.53;2083834;28;20234;-40
2022/01/20 02:04:20;;;;;;;;;;;;;;;18.77;44.04;101086.28;2081062;28;20058;-40
2022/01/20 02:05:21;;;;;;;;;;;;;;;18.75;44.22;101087.38;2083104;28;19924;-41
2022/01/20 02:08:23;;;;;;;;;;;;;;;18.74;44.20;101080.16;2067502;28;20338;-40
2022/01/20 02:09:43;;;;;;;;;;;;;;;18.72;44.29;101088.50;2072606;28;20273;-41
2022/01/20 02:19:48;;;;;;;;;;;;;;;18.69;44.36;101082.38;2083796;28;20292;-40
2022/01/20 02:20:49;;;;;;;;;;;;;;;18.69;44.24;101083.28;2084655;28;19938;-40
2022/01/20 02:21:51;;;;;;;;;;;;;;;18.70;44.30;101079.53;2083957;28;20348;-41
2022/01/20 02:22:51;;;;;;;;;;;;;;;18.69;44.15;101083.28;2085556;28;20003;-40
2022/01/20 02:23:52;;;;;;;;;;;;;;;18.70;44.20;101082.28;2085647;28;20269;-41
2022/01/20 02:24:52;;;;;;;;;;;;;;;18.70;44.23;101084.16;2080128;28;19967;-40
2022/01/20 02:25:53;;;;;;;;;;;;;;;18.71;44.33;101085.88;2085860;28;20468;-40
2022/01/20 02:26:53;;;;;;;;;;;;;;;18.69;44.38;101077.81;2078629;28;19916;-40
2022/01/20 02:27:54;;;;;;;;;;;;;;;18.69;44.25;101082.38;2082062;28;19913;-40
2022/01/20 02:28:54;;;;;;;;;;;;;;;18.69;44.34;101083.28;2081783;28;19917;-40
2022/01/20 02:29:55;;;;;;;;;;;;;;;18.68;44.30;101077.94;2081806;28;19917;-40
2022/01/20 02:30:55;;;;;;;;;;;;;;;18.66;44.46;101080.78;2079510;28;20225;-40
2022/01/20 02:31:56;;;;;;;;;;;;;;;18.67;44.23;101078.91;2083472;28;20406;-41
2022/01/20 02:33:16;;;;;;;;;;;;;;;18.65;44.44;101079.06;2085498;28;19931;-40
2022/01/20 02:34:20;;;;;;;;;;;;;;;18.66;44.41;101077.19;2085065;28;19912;-40
2022/01/20 02:35:21;;;;;;;;;;;;;;;18.62;44.39;101071.13;2080776;28;19916;-40
2022/01/20 02:36:21;;;;;;;;;;;;;;;18.62;44.42;101071.97;2083090;28;19916;-41
2022/01/20 02:37:22;;;;;;;;;;;;;;;18.62;44.43;101071.13;2083063;28;20238;-40
2022/01/20 02:45:26;;;;;;;;;;;;;;;18.59;44.61;101074.06;2078969;28;20026;-40
2022/01/20 02:46:27;;;;;;;;;;;;;;;18.58;44.63;101066.88;2082302;28;20239;-40
2022/01/20 02:47:28;;;;;;;;;;;;;;;18.59;44.46;101072.22;2084222;28;20258;-40
2022/01/20 02:48:28;;;;;;;;;;;;;;;18.59;44.63;101068.59;2076728;28;20034;-40
2022/01/20 02:49:29;;;;;;;;;;;;;;;18.59;44.48;101065.88;2072994;28;19917;-40
2022/01/20 02:50:29;;;;;;;;;;;;;;;18.59;44.56;101065.88;2084416;28;20279;-40
2022/01/20 02:51:29;;;;;;;;;;;;;;;18.57;44.40;101068.75;2084652;28;19920;-42
2022/01/20 02:52:30;;;;;;;;;;;;;;;18.58;44.48;101065.00;2085492;28;19916;-40
2022/01/20 02:53:30;;;;;;;;;;;;;;;18.58;44.57;101070.47;2082958;28;19916;-41
2022/01/20 02:54:30;;;;;;;;;;;;;;;18.58;44.60;101058.69;2085559;28;19916;-40
2022/01/20 02:55:31;;;;;;;;;;;;;;;18.57;44.62;101065.13;2084084;28;19950;-40
2022/01/20 02:56:31;;;;;;;;;;;;;;;18.58;44.56;101064.16;2078603;28;19923;-40
2022/01/20 02:57:31;;;;;;;;;;;;;;;18.58;44.64;101058.69;2084818;28;19947;-40
2022/01/20 02:58:32;;;;;;;;;;;;;;;18.57;44.60;101065.13;2082972;28;20327;-40
2022/01/20 02:59:34;;;;;;;;;;;;;;;18.56;44.67;101060.66;2083178;28;19990;-40
2022/01/20 03:00:35;;;;;;;;;;;;;;;18.56;44.66;101055.22;2085387;28;20011;-40
2022/01/20 03:01:35;;;;;;;;;;;;;;;18.54;44.61;101060.78;2083756;28;20265;-40
2022/01/20 03:02:35;;;;;;;;;;;;;;;18.53;44.64;101061.78;2085171;28;19991;-40
2022/01/20 03:03:36;;;;;;;;;;;;;;;18.54;44.57;101051.72;2085493;28;19904;-40
2022/01/20 03:04:37;;;;;;;;;;;;;;;18.53;44.72;101050.88;2082007;28;19920;-40
2022/01/20 03:05:37;;;;;;;;;;;;;;;18.52;44.68;101049.13;2084852;28;20218;-40
2022/01/20 03:06:38;;;;;;;;;;;;;;;18.52;44.77;101050.97;2083167;28;20037;-40
2022/01/20 03:07:38;;;;;;;;;;;;;;;18.51;44.77;101047.38;2081215;28;19908;-40
2022/01/20 03:08:39;;;;;;;;;;;;;;;18.52;44.63;101048.25;2079512;28;19920;-40
2022/01/20 03:09:39;;;;;;;;;;;;;;;18.50;44.68;101047.53;2081131;28;20323;-40
2022/01/20 03:10:40;;;;;;;;;;;;;;;18.51;44.80;101051.97;2084191;28;20320;-40
2022/01/20 03:11:40;;;;;;;;;;;;;;;18.50;44.80;101053.00;2083462;28;19940;-40
2022/01/20 03:12:40;;;;;;;;;;;;;;;18.50;44.73;101055.72;2086622;28;20390;-40
2022/01/20 03:13:41;;;;;;;;;;;;;;;18.48;44.63;101064.03;2086754;28;19916;-40
2022/01/20 03:14:42;;;;;;;;;;;;;;;18.49;44.56;101070.34;2084926;28;19924;-40
2022/01/20 03:15:43;;;;;;;;;;;;;;;18.49;44.83;101075.81;2083416;28;19931;-41
2022/01/20 03:16:44;;;;;;;;;;;;;;;18.48;44.62;101071.34;2084013;28;19987;-40
2022/01/20 03:17:45;;;;;;;;;;;;;;;18.48;44.80;101074.94;2084901;28;19912;-41
2022/01/20 03:18:45;;;;;;;;;;;;;;;18.48;44.80;101074.06;2083488;28;19939;-40
2022/01/20 03:19:45;;;;;;;;;;;;;;;18.48;44.71;101072.22;2077749;28;19924;-43
2022/01/20 03:20:46;;;;;;;;;;;;;;;18.48;44.57;101074.06;2083710;28;19912;-40
2022/01/20 03:21:46;;;;;;;;;;;;;;;18.48;44.67;101074.06;2083532;28;20383;-41
2022/01/20 03:22:46;;;;;;;;;;;;;;;18.48;44.79;101069.47;2083866;28;19916;-40
2022/01/20 03:23:46;;;;;;;;;;;;;;;18.49;44.71;101059.41;2081854;28;19912;-40
2022/01/20 03:24:47;;;;;;;;;;;;;;;18.49;44.81;101070.34;2077986;28;20265;-42
2022/01/20 03:25:47;;;;;;;;;;;;;;;18.48;44.62;101063.16;2084210;28;19927;-40
2022/01/20 03:26:48;;;;;;;;;;;;;;;18.48;44.72;101064.03;2084306;28;20227;-41
2022/01/20 03:27:48;;;;;;;;;;;;;;;18.47;44.75;101066.84;2083553;28;19923;-41
2022/01/20 03:28:50;;;;;;;;;;;;;;;18.48;44.71;101068.63;2084197;28;19951;-40
2022/01/20 03:29:51;;;;;;;;;;;;;;;18.46;44.80;101066.00;2076490;28;20448;-40
2022/01/20 03:30:51;;;;;;;;;;;;;;;18.45;44.58;101057.91;2083536;28;19961;-40
2022/01/20 03:31:51;;;;;;;;;;;;;;;18.45;44.75;101060.66;2079477;28;19921;-40
2022/01/20 03:32:52;;;;;;;;;;;;;;;18.44;44.83;101062.50;2081026;28;19925;-40
2022/01/20 03:33:53;;;;;;;;;;;;;;;18.43;44.81;101061.66;2084122;28;19920;-40
2022/01/20 03:34:53;;;;;;;;;;;;;;;18.43;44.68;101063.53;2081093;28;19958;-40
2022/01/20 03:35:53;;;;;;;;;;;;;;;18.42;44.71;101057.19;2080570;28;19940;-41
2022/01/20 03:36:54;;;;;;;;;;;;;;;18.42;44.87;101054.47;2084528;28;20293;-40
2022/01/20 03:37:54;;;;;;;;;;;;;;;18.41;44.69;101051.84;2084127;28;19930;-40
2022/01/20 03:38:54;;;;;;;;;;;;;;;18.41;44.91;101049.13;2082223;28;19920;-40
2022/01/20 03:39:55;;;;;;;;;;;;;;;18.41;44.85;101058.16;2084987;28;19925;-40
2022/01/20 03:40:55;;;;;;;;;;;;;;;18.40;44.74;101061.91;2083956;28;19923;-40
2022/01/20 03:41:56;;;;;;;;;;;;;;;18.41;44.89;101057.31;2082558;28;19920;-40
2022/01/20 03:42:56;;;;;;;;;;;;;;;18.39;44.75;101054.69;2084460;28;20365;-40
2022/01/20 03:43:56;;;;;;;;;;;;;;;18.39;44.69;101054.69;2081824;28;19928;-40
2022/01/20 03:44:57;;;;;;;;;;;;;;;18.39;44.68;101049.22;2079396;28;20116;-40
2022/01/20 03:45:59;;;;;;;;;;;;;;;18.38;44.94;101047.50;2083381;28;19920;-42
2022/01/20 03:47:02;;;;;;;;;;;;;;;18.40;44.91;101050.13;2082513;28;20196;-40
2022/01/20 03:48:09;;;;;;;;;;;;;;;18.40;44.89;101050.13;2083640;28;19916;-40
2022/01/20 03:49:21;;;;;;;;;;;;;;;18.40;44.95;101050.97;2084078;28;19923;-40
2022/01/20 03:51:41;;;;;;;;;;;;;;;18.40;44.70;101048.25;2083746;28;19930;-40
2022/01/20 03:52:41;;;;;;;;;;;;;;;18.41;44.91;101047.25;2082566;28;19934;-40
2022/01/20 03:53:42;;;;;;;;;;;;;;;18.41;44.83;101041.78;2084791;28;19916;-41
2022/01/20 03:54:42;;;;;;;;;;;;;;;18.40;44.74;101045.53;2084722;28;20009;-40
2022/01/20 03:55:42;;;;;;;;;;;;;;;18.43;44.75;101048.00;2082235;28;19917;-40
2022/01/20 03:56:43;;;;;;;;;;;;;;;18.44;44.82;101054.31;2083134;28;20002;-40
2022/01/20 03:57:43;;;;;;;;;;;;;;;18.43;44.79;101056.19;2082037;28;20238;-40
2022/01/20 03:58:43;;;;;;;;;;;;;;;18.42;44.71;101048.09;2083996;28;19949;-40
2022/01/20 03:59:44;;;;;;;;;;;;;;;18.42;44.81;101054.47;2083949;28;19948;-40
2022/01/20 04:00:45;;;;;;;;;;;;;;;18.42;44.84;101048.09;2077802;28;19913;-41
2022/01/20 04:01:45;;;;;;;;;;;;;;;18.42;44.62;101051.75;2080910;28;19932;-40
2022/01/20 04:02:46;;;;;;;;;;;;;;;18.42;44.81;101054.47;2084840;28;19916;-40
2022/01/20 04:03:46;;;;;;;;;;;;;;;18.40;44.94;101050.97;2085523;28;20227;-40
2022/01/20 04:04:46;;;;;;;;;;;;;;;18.40;44.79;101053.72;2083673;28;20291;-40
2022/01/20 04:06:50;;;;;;;;;;;;;;;18.38;44.77;101052.97;2083746;28;19923;-40
2022/01/20 04:07:51;;;;;;;;;;;;;;;18.37;44.90;101056.69;2083649;28;20335;-40
2022/01/20 04:08:51;;;;;;;;;;;;;;;18.36;44.75;101049.47;2083679;28;19978;-40
2022/01/20 04:09:51;;;;;;;;;;;;;;;18.37;45.03;101050.34;2083497;28;19962;-40
2022/01/20 04:10:52;;;;;;;;;;;;;;;18.36;44.94;101046.75;2082767;28;19917;-40
2022/01/20 04:11:53;;;;;;;;;;;;;;;18.35;44.90;101047.75;2083075;28;19916;-40
2022/01/20 04:12:54;;;;;;;;;;;;;;;18.35;44.74;101047.75;2085989;28;19912;-41
2022/01/20 04:13:55;;;;;;;;;;;;;;;18.34;44.80;101051.47;2079742;28;20015;-40
2022/01/20 04:14:56;;;;;;;;;;;;;;;18.34;44.68;101046.00;2085049;28;20445;-40
2022/01/20 04:15:59;;;;;;;;;;;;;;;18.33;44.99;101044.28;2079434;28;20302;-40
2022/01/20 04:18:02;;;;;;;;;;;;;;;18.33;45.01;101046.13;2084279;28;20226;-41
2022/01/20 04:19:07;;;;;;;;;;;;;;;18.33;44.93;101048.88;2083787;28;20251;-40
2022/01/20 04:20:08;;;;;;;;;;;;;;;18.33;44.89;101049.72;2084088;28;20050;-40
2022/01/20 04:21:08;;;;;;;;;;;;;;;18.32;44.92;101045.25;2090898;28;19920;-40
2022/01/20 04:22:08;;;;;;;;;;;;;;;18.32;45.07;101042.50;2091996;28;19924;-40
2022/01/20 04:23:09;;;;;;;;;;;;;;;18.32;45.06;101042.50;2082175;28;20451;-40
2022/01/20 04:24:10;;;;;;;;;;;;;;;18.32;44.88;101037.06;2081510;28;20066;-40
2022/01/20 04:25:11;;;;;;;;;;;;;;;18.31;44.93;101027.13;2081582;28;20171;-40
2022/01/20 04:26:11;;;;;;;;;;;;;;;18.31;44.98;101039.94;2081195;28;19935;-40
2022/01/20 04:27:11;;;;;;;;;;;;;;;18.31;44.94;101029.88;2081145;28;19979;-41
2022/01/20 04:28:11;;;;;;;;;;;;;;;18.29;44.80;101023.66;2077953;28;19931;-40
2022/01/20 04:29:12;;;;;;;;;;;;;;;18.28;45.00;101030.13;2084759;28;19974;-40
2022/01/20 04:30:12;;;;;;;;;;;;;;;18.27;45.11;101028.38;2083089;28;19968;-40
2022/01/20 04:31:13;;;;;;;;;;;;;;;18.26;44.90;101026.66;2081794;28;19924;-40
2022/01/20 04:32:13;;;;;;;;;;;;;;;18.26;45.11;101029.38;2080899;28;19971;-40
2022/01/20 04:33:13;;;;;;;;;;;;;;;18.24;44.95;101028.63;2081669;28;20154;-40
2022/01/20 04:34:14;;;;;;;;;;;;;;;18.24;44.96;101034.09;2085189;28;20268;-40
2022/01/20 04:35:19;;;;;;;;;;;;;;;18.25;44.96;101029.47;2082105;28;19920;-41
2022/01/20 04:36:19;;;;;;;;;;;;;;;18.24;45.04;101028.63;2082586;28;19919;-40
2022/01/20 04:37:20;;;;;;;;;;;;;;;18.25;45.03;101034.94;2085298;28;20274;-40
2022/01/20 04:38:21;;;;;;;;;;;;;;;18.24;45.19;101034.09;2082508;28;19925;-40
2022/01/20 04:39:24;;;;;;;;;;;;;;;18.24;45.06;101034.09;2080664;28;19946;-40
2022/01/20 04:40:25;;;;;;;;;;;;;;;18.23;45.09;101037.81;2080980;28;19928;-41
2022/01/20 04:41:29;;;;;;;;;;;;;;;18.21;45.02;101032.47;2079426;28;20514;-40
2022/01/20 04:42:32;;;;;;;;;;;;;;;18.21;44.97;101035.19;2082837;28;19964;-40
2022/01/20 04:43:32;;;;;;;;;;;;;;;18.22;45.13;101030.59;2081983;28;20152;-40
2022/01/20 04:44:48;;;;;;;;;;;;;;;18.22;45.19;101030.59;2079247;28;19962;-40
2022/01/20 04:45:56;;;;;;;;;;;;;;;18.21;45.16;101031.59;2080763;28;20004;-40
2022/01/20 04:47:09;;;;;;;;;;;;;;;18.22;45.05;101025.13;2079519;28;20068;-40
2022/01/20 04:58:11;;;;;;;;;;;;;;;18.20;45.22;101047.13;2082835;28;20076;-40
2022/01/20 04:59:12;;;;;;;;;;;;;;;18.19;45.21;101050.81;2083377;28;20499;-40
2022/01/20 05:00:12;;;;;;;;;;;;;;;18.19;45.20;101053.53;2083607;28;19939;-40
2022/01/20 05:01:13;;;;;;;;;;;;;;;18.20;45.28;101062.59;2083005;28;20264;-40
2022/01/20 05:02:13;;;;;;;;;;;;;;;18.19;45.33;101058.13;2081656;28;19917;-40
2022/01/20 05:03:14;;;;;;;;;;;;;;;18.18;45.34;101050.97;2083205;28;19927;-40
2022/01/20 05:04:14;;;;;;;;;;;;;;;18.17;45.13;101060.13;2081415;28;19939;-41
2022/01/20 05:05:14;;;;;;;;;;;;;;;18.16;45.19;101058.38;2085416;28;19936;-40
2022/01/20 05:06:15;;;;;;;;;;;;;;;18.15;45.18;101062.97;2080217;28;19916;-40
2022/01/20 05:07:21;;;;;;;;;;;;;;;18.16;45.33;101074.75;2083205;28;20342;-40
2022/01/20 05:08:23;;;;;;;;;;;;;;;18.15;45.20;101070.28;2080626;28;19924;-40
2022/01/20 05:09:24;;;;;;;;;;;;;;;18.15;45.11;101073.00;2081880;28;20210;-40
2022/01/20 05:10:24;;;;;;;;;;;;;;;18.14;45.23;101076.72;2083163;28;19915;-40
2022/01/20 05:11:25;;;;;;;;;;;;;;;18.14;45.28;101072.13;2082370;28;19955;-40
2022/01/20 05:12:35;;;;;;;;;;;;;;;18.13;45.25;101072.28;2084252;28;19921;-41
2022/01/20 05:13:40;;;;;;;;;;;;;;;18.13;45.38;101072.28;2083933;28;20412;-40
2022/01/20 05:14:40;;;;;;;;;;;;;;;18.12;45.29;101074.13;2083068;28;20171;-40
2022/01/20 05:15:41;;;;;;;;;;;;;;;18.12;45.15;101063.19;2083752;28;20215;-41
2022/01/20 05:16:41;;;;;;;;;;;;;;;18.13;45.41;101069.56;2081417;28;19975;-41
2022/01/20 05:17:41;;;;;;;;;;;;;;;18.13;45.28;101069.56;2080820;28;19927;-40
2022/01/20 05:18:42;;;;;;;;;;;;;;;18.13;45.09;101066.81;2084876;28;19932;-40
2022/01/20 05:19:42;;;;;;;;;;;;;;;18.13;45.12;101064.09;2082995;28;20202;-41
2022/01/20 05:20:42;;;;;;;;;;;;;;;18.13;45.19;101064.97;2084360;28;19918;-41
2022/01/20 05:21:43;;;;;;;;;;;;;;;18.13;45.34;101061.38;2082309;28;20396;-40
2022/01/20 05:22:43;;;;;;;;;;;;;;;18.11;45.42;101060.63;2082924;28;20277;-40
2022/01/20 05:23:43;;;;;;;;;;;;;;;18.11;45.34;101063.34;2084344;28;19921;-40
2022/01/20 05:24:44;;;;;;;;;;;;;;;18.10;45.25;101058.84;2084226;28;19920;-40
2022/01/20 05:25:44;;;;;;;;;;;;;;;18.11;45.29;101066.06;2084096;28;19916;-40
2022/01/20 05:26:46;;;;;;;;;;;;;;;18.10;45.30;101070.63;2080437;28;19909;-40
2022/01/20 05:27:46;;;;;;;;;;;;;;;18.09;45.26;101073.50;2081562;28;20318;-42
2022/01/20 05:28:47;;;;;;;;;;;;;;;18.08;45.34;101067.19;2079375;28;19917;-40
2022/01/20 05:29:47;;;;;;;;;;;;;;;18.09;45.29;101068.03;2082392;28;20334;-41
2022/01/20 05:30:47;;;;;;;;;;;;;;;18.07;45.37;101068.16;2083248;28;19920;-40
2022/01/20 05:31:48;;;;;;;;;;;;;;;18.08;45.36;101066.28;2082969;28;20289;-40
2022/01/20 05:32:48;;;;;;;;;;;;;;;18.06;45.29;101063.69;2082482;28;20157;-40
2022/01/20 05:33:48;;;;;;;;;;;;;;;18.06;45.20;101062.84;2083240;28;20022;-40
2022/01/20 05:34:48;;;;;;;;;;;;;;;18.07;45.37;101067.28;2082573;28;19931;-41
2022/01/20 05:35:49;;;;;;;;;;;;;;;18.05;45.30;101055.63;2083487;28;20347;-40
2022/01/20 05:36:49;;;;;;;;;;;;;;;18.05;45.23;101061.06;2083780;28;19920;-41
2022/01/20 05:37:49;;;;;;;;;;;;;;;18.05;45.39;101063.81;2080897;28;19934;-41
2022/01/20 05:38:50;;;;;;;;;;;;;;;18.04;45.30;101070.25;2081502;28;19931;-41
2022/01/20 05:39:50;;;;;;;;;;;;;;;18.04;45.18;101076.59;2083672;28;19920;-41
2022/01/20 05:40:50;;;;;;;;;;;;;;;18.04;45.41;101067.53;2083662;28;20556;-40
2022/01/20 05:41:50;;;;;;;;;;;;;;;18.03;45.39;101065.78;2080404;28;19921;-40
2022/01/20 05:42:51;;;;;;;;;;;;;;;18.03;45.30;101063.03;2082083;28;20223;-41
2022/01/20 05:43:51;;;;;;;;;;;;;;;18.02;45.45;101061.31;2082983;28;19966;-40
2022/01/20 05:44:52;;;;;;;;;;;;;;;18.02;45.26;101064.06;2084230;28;19921;-41
2022/01/20 05:45:52;;;;;;;;;;;;;;;18.02;45.44;101055.88;2085286;28;19920;-41
2022/01/20 05:46:53;;;;;;;;;;;;;;;18.02;45.53;101062.19;2085691;28;19921;-40
2022/01/20 05:48:01;;;;;;;;;;;;;;;18.02;45.36;101062.19;2082734;28;19928;-41
2022/01/20 05:49:08;;;;;;;;;;;;;;;18.03;45.33;101057.59;2084453;28;20556;-40
2022/01/20 05:50:10;;;;;;;;;;;;;;;18.01;45.42;101068.66;2085647;28;19924;-40
2022/01/20 05:51:10;;;;;;;;;;;;;;;18.01;45.30;101071.38;2085006;28;19916;-40
2022/01/20 05:52:12;;;;;;;;;;;;;;;18.02;45.49;101069.50;2082916;28;20350;-40
2022/01/20 05:53:13;;;;;;;;;;;;;;;18.01;45.53;101068.66;2078230;28;19921;-41
2022/01/20 05:54:13;;;;;;;;;;;;;;;18.01;45.41;101071.38;2083390;28;19920;-40
2022/01/20 05:55:17;;;;;;;;;;;;;;;17.98;45.43;101067.03;2085582;28;19920;-40
2022/01/20 05:56:18;;;;;;;;;;;;;;;18.00;45.30;101070.47;2084495;28;20373;-40
2022/01/20 05:57:18;;;;;;;;;;;;;;;17.98;45.42;101061.56;2083299;28;19920;-40
2022/01/20 05:58:21;;;;;;;;;;;;;;;17.98;45.50;101061.56;2080312;28;19925;-40
2022/01/20 05:59:22;;;;;;;;;;;;;;;18.00;45.30;101064.16;2082177;28;20011;-40
2022/01/20 06:00:24;;;;;;;;;;;;;;;17.95;45.46;101059.06;2085547;28;19927;-40
2022/01/20 06:01:24;;;;;;;;;;;;;;;17.96;45.36;101063.53;2083763;28;19920;-40
2022/01/20 06:02:36;;;;;;;;;;;;;;;17.96;45.55;101051.75;2086211;28;19956;-40
2022/01/20 06:03:36;;;;;;;;;;;;;;;17.94;45.54;101059.19;2085632;28;19920;-40
2022/01/20 06:04:36;;;;;;;;;;;;;;;17.94;45.32;101059.19;2082947;28;19920;-40
2022/01/20 06:05:37;;;;;;;;;;;;;;;17.93;45.52;101041.06;2085902;28;20247;-40
2022/01/20 06:06:38;;;;;;;;;;;;;;;17.93;45.48;101036.50;2085055;28;20273;-40
2022/01/20 06:07:38;;;;;;;;;;;;;;;17.91;45.47;101038.47;2082349;28;20869;-40
2022/01/20 06:08:39;;;;;;;;;;;;;;;17.91;45.67;101033.03;2083662;28;20212;-40
2022/01/20 06:09:39;;;;;;;;;;;;;;;17.91;45.37;101032.16;2083247;28;19924;-40
2022/01/20 06:10:40;;;;;;;;;;;;;;;17.91;45.59;101034.88;2082156;28;20343;-40
2022/01/20 06:11:40;;;;;;;;;;;;;;;17.90;45.49;101036.72;2083585;28;19912;-40
2022/01/20 06:12:41;;;;;;;;;;;;;;;17.90;45.56;101031.28;2081699;28;19924;-40
2022/01/20 06:13:41;;;;;;;;;;;;;;;17.90;45.47;101031.28;2083556;28;20010;-43
2022/01/20 06:14:42;;;;;;;;;;;;;;;17.90;45.57;101031.28;2084921;28;19927;-41
2022/01/20 06:15:42;;;;;;;;;;;;;;;17.90;45.70;101028.53;2086098;28;19920;-40
2022/01/20 06:16:43;;;;;;;;;;;;;;;17.91;45.42;101023.97;2081875;28;20327;-40
2022/01/20 06:17:43;;;;;;;;;;;;;;;17.92;45.44;101028.44;2082554;28;20562;-40
2022/01/20 06:18:44;;;;;;;;;;;;;;;17.93;45.40;101030.16;2079997;28;20165;-43
2022/01/20 06:19:44;;;;;;;;;;;;;;;17.94;45.36;101040.97;2084354;28;19916;-40
2022/01/20 06:20:44;;;;;;;;;;;;;;;17.95;45.27;101033.63;2086672;28;19959;-40
2022/01/20 06:21:45;;;;;;;;;;;;;;;17.95;45.27;101039.97;2084396;28;20196;-40
2022/01/20 06:22:46;;;;;;;;;;;;;;;17.97;45.38;101042.56;2083909;28;19947;-40
2022/01/20 06:23:46;;;;;;;;;;;;;;;17.95;45.25;101036.38;2087019;28;19970;-40